createdAt,value
2023-12-04T00:01:26.481Z,79110.19
2023-12-04T00:03:53.443Z,79099.78
2023-12-04T00:06:19.955Z,79093.56
2023-12-04T00:08:46.305Z,79097.72
2023-12-04T00:11:12.722Z,79091.47
2023-12-04T00:13:40.350Z,79093.56
2023-12-04T00:16:07.133Z,79097.72
2023-12-04T00:18:36.229Z,79093.56
2023-12-04T00:21:02.849Z,79085.25
2023-12-04T00:23:31.713Z,79089.41
2023-12-04T00:25:58.033Z,79081.09
2023-12-04T00:28:24.461Z,79083.16
2023-12-04T00:30:50.947Z,79076.94
2023-12-04T00:33:17.673Z,79081.09
2023-12-04T00:35:44.176Z,79070.69
2023-12-04T00:38:10.566Z,79072.78
2023-12-04T00:40:37.076Z,79068.59
2023-12-04T00:43:03.742Z,79068.59
2023-12-04T00:45:30.197Z,79072.78
2023-12-04T00:47:56.915Z,79068.59
2023-12-04T00:50:23.413Z,79068.59
2023-12-04T00:52:49.826Z,79060.28
2023-12-04T00:55:16.332Z,79062.38
2023-12-04T00:57:42.738Z,79064.44
2023-12-04T01:00:09.772Z,79068.59
2023-12-04T01:02:36.132Z,79062.38
2023-12-04T01:05:02.658Z,79054.06
2023-12-04T01:07:29.019Z,79056.13
2023-12-04T01:09:55.409Z,79060.28
2023-12-04T01:12:21.834Z,79054.06
2023-12-04T01:14:48.274Z,79064.44
2023-12-04T01:17:14.675Z,79049.91
2023-12-04T01:19:41.102Z,79045.75
2023-12-04T01:22:08.399Z,79047.81
2023-12-04T01:24:34.862Z,79043.66
2023-12-04T01:27:01.317Z,79039.50
2023-12-04T01:29:27.752Z,79035.34
2023-12-04T01:31:54.366Z,79035.34
2023-12-04T01:34:20.758Z,79037.44
2023-12-04T01:36:47.259Z,79035.34
2023-12-04T01:39:14.025Z,79035.34
2023-12-04T01:41:40.413Z,79031.19
2023-12-04T01:44:06.832Z,79027.03
2023-12-04T01:46:33.330Z,79029.13
2023-12-04T01:49:00.679Z,79033.28
2023-12-04T01:51:28.375Z,79029.13
2023-12-04T01:53:55.748Z,79024.97
2023-12-04T01:56:22.553Z,79029.13
2023-12-04T01:58:48.967Z,79020.81
2023-12-04T02:01:15.649Z,79018.72
2023-12-04T02:03:43.485Z,79014.56
2023-12-04T02:06:10.422Z,79018.72
2023-12-04T02:08:37.016Z,79012.50
2023-12-04T02:11:03.560Z,79010.41
2023-12-04T02:13:29.981Z,79010.41
2023-12-04T02:15:59.570Z,79004.19
2023-12-04T02:18:26.123Z,79002.09
2023-12-04T02:20:54.080Z,78993.78
2023-12-04T02:23:20.477Z,78995.84
2023-12-04T02:25:46.941Z,78989.63
2023-12-04T02:28:16.802Z,79000.03
2023-12-04T02:30:45.149Z,78987.53
2023-12-04T02:33:14.508Z,78979.22
2023-12-04T02:35:43.132Z,78979.22
2023-12-04T02:38:10.379Z,78975.06
2023-12-04T02:40:36.952Z,78977.16
2023-12-04T02:43:03.436Z,78966.75
2023-12-04T02:45:29.889Z,78964.69
2023-12-04T02:47:56.511Z,78964.69
2023-12-04T02:50:22.976Z,78958.44
2023-12-04T02:52:49.443Z,78956.38
2023-12-04T02:55:15.845Z,78954.28
2023-12-04T02:57:42.266Z,78956.38
2023-12-04T03:00:09.335Z,78943.91
2023-12-04T03:02:35.740Z,78939.75
2023-12-04T03:05:02.081Z,78939.75
2023-12-04T03:07:28.453Z,78935.59
2023-12-04T03:09:54.873Z,78929.34
2023-12-04T03:12:21.240Z,78925.19
2023-12-04T03:14:47.627Z,78931.44
2023-12-04T03:17:14.102Z,78925.19
2023-12-04T03:19:40.733Z,78929.34
2023-12-04T03:22:07.261Z,78929.34
2023-12-04T03:24:33.799Z,78916.88
2023-12-04T03:27:01.343Z,78923.13
2023-12-04T03:29:27.750Z,78912.72
2023-12-04T03:31:54.432Z,78916.88
2023-12-04T03:34:20.853Z,78912.72
2023-12-04T03:36:47.256Z,78906.50
2023-12-04T03:39:13.642Z,78906.50
2023-12-04T03:41:40.131Z,78910.66
2023-12-04T03:44:06.571Z,78902.31
2023-12-04T03:46:32.941Z,78900.25
2023-12-04T03:49:00.427Z,78900.25
2023-12-04T03:51:26.926Z,78894.00
2023-12-04T03:53:53.283Z,78891.94
2023-12-04T03:56:19.643Z,78885.69
2023-12-04T03:58:46.059Z,78887.78
2023-12-04T04:01:12.561Z,78877.38
2023-12-04T04:03:39.067Z,78879.47
2023-12-04T04:06:07.509Z,78881.53
2023-12-04T04:08:33.923Z,78873.22
2023-12-04T04:11:00.334Z,78875.31
2023-12-04T04:13:26.703Z,78869.06
2023-12-04T04:15:53.159Z,78864.91
2023-12-04T04:18:19.902Z,78864.91
2023-12-04T04:20:46.314Z,78860.75
2023-12-04T04:23:12.964Z,78856.59
2023-12-04T04:25:39.475Z,78856.59
2023-12-04T04:28:05.866Z,78856.59
2023-12-04T04:30:32.298Z,78848.28
2023-12-04T04:32:58.891Z,78850.38
2023-12-04T04:35:25.255Z,78844.13
2023-12-04T04:37:54.311Z,78842.06
2023-12-04T04:40:20.805Z,78842.06
2023-12-04T04:42:47.488Z,78842.06
2023-12-04T04:45:13.886Z,78839.97
2023-12-04T04:47:41.048Z,78842.06
2023-12-04T04:50:07.868Z,78839.97
2023-12-04T04:52:34.656Z,78833.75
2023-12-04T04:55:01.237Z,78835.81
2023-12-04T04:57:27.787Z,78831.66
2023-12-04T04:59:54.179Z,78829.59
2023-12-04T05:02:20.587Z,78825.44
2023-12-04T05:04:47.191Z,78831.66
2023-12-04T05:07:13.881Z,78827.50
2023-12-04T05:09:40.354Z,78835.81
2023-12-04T05:12:06.969Z,78831.66
2023-12-04T05:14:33.428Z,78821.28
2023-12-04T05:17:00.046Z,78827.50
2023-12-04T05:19:26.567Z,78823.34
2023-12-04T05:21:53.030Z,78819.19
2023-12-04T05:24:19.419Z,78821.28
2023-12-04T05:26:45.816Z,78817.13
2023-12-04T05:29:13.023Z,78808.81
2023-12-04T05:31:39.454Z,78808.81
2023-12-04T05:34:06.074Z,78802.56
2023-12-04T05:36:32.741Z,78800.50
2023-12-04T05:39:01.585Z,78800.50
2023-12-04T05:41:28.225Z,78783.84
2023-12-04T05:43:54.580Z,78788.00
2023-12-04T05:46:21.019Z,78790.09
2023-12-04T05:48:47.697Z,78783.84
2023-12-04T05:51:14.142Z,78781.78
2023-12-04T05:53:40.720Z,78779.69
2023-12-04T05:56:07.630Z,78783.84
2023-12-04T05:58:34.032Z,78777.63
2023-12-04T06:01:00.481Z,78777.63
2023-12-04T06:03:27.596Z,78775.53
2023-12-04T06:05:56.758Z,78773.47
2023-12-04T06:08:24.872Z,78773.47
2023-12-04T06:10:51.456Z,78765.16
2023-12-04T06:13:17.938Z,78767.22
2023-12-04T06:15:44.412Z,78769.31
2023-12-04T06:18:10.893Z,78761.00
2023-12-04T06:20:37.584Z,78769.31
2023-12-04T06:23:04.113Z,78771.38
2023-12-04T06:25:30.817Z,78767.22
2023-12-04T06:27:57.817Z,78767.22
2023-12-04T06:30:24.527Z,78773.47
2023-12-04T06:32:51.273Z,78758.91
2023-12-04T06:35:20.188Z,78754.75
2023-12-04T06:37:49.344Z,78750.59
2023-12-04T06:40:16.196Z,78758.91
2023-12-04T06:42:42.948Z,78748.53
2023-12-04T06:45:09.983Z,78736.06
2023-12-04T06:47:38.322Z,78738.13
2023-12-04T06:50:05.349Z,78731.91
2023-12-04T06:52:31.810Z,78742.28
2023-12-04T06:54:58.306Z,78731.91
2023-12-04T06:57:24.905Z,78725.66
2023-12-04T06:59:51.636Z,78721.50
2023-12-04T07:02:18.020Z,78725.66
2023-12-04T07:04:44.556Z,78736.06
2023-12-04T07:07:11.043Z,78725.66
2023-12-04T07:09:37.538Z,78719.44
2023-12-04T07:12:04.420Z,78713.19
2023-12-04T07:14:31.264Z,78709.03
2023-12-04T07:16:58.991Z,78706.97
2023-12-04T07:19:25.785Z,78700.72
2023-12-04T07:21:52.232Z,78700.72
2023-12-04T07:24:18.606Z,78700.72
2023-12-04T07:26:45.069Z,78700.72
2023-12-04T07:29:11.412Z,78696.56
2023-12-04T07:31:38.824Z,78700.72
2023-12-04T07:34:05.418Z,78692.41
2023-12-04T07:36:31.939Z,78694.50
2023-12-04T07:38:58.328Z,78694.50
2023-12-04T07:41:24.968Z,78694.50
2023-12-04T07:43:52.449Z,78694.50
2023-12-04T07:46:19.020Z,78694.50
2023-12-04T07:48:45.636Z,78694.50
2023-12-04T07:51:13.562Z,78694.50
2023-12-04T07:53:39.955Z,78686.19
2023-12-04T07:56:06.807Z,78679.94
2023-12-04T07:58:33.369Z,78673.72
2023-12-04T08:01:00.165Z,78679.94
2023-12-04T08:03:26.771Z,78682.03
2023-12-04T08:05:53.212Z,78669.53
2023-12-04T08:08:20.127Z,78669.53
2023-12-04T08:10:46.464Z,78669.53
2023-12-04T08:13:12.836Z,78667.47
2023-12-04T08:15:41.529Z,78677.88
2023-12-04T08:18:07.957Z,78665.38
2023-12-04T08:20:39.972Z,78675.78
2023-12-04T08:23:07.595Z,78665.38
2023-12-04T08:25:34.324Z,78667.47
2023-12-04T08:28:00.907Z,78661.22
2023-12-04T08:30:27.347Z,78655.00
2023-12-04T08:32:53.827Z,78652.91
2023-12-04T08:35:20.472Z,78646.69
2023-12-04T08:37:47.076Z,78632.13
2023-12-04T08:40:13.914Z,78636.28
2023-12-04T08:42:40.506Z,78623.81
2023-12-04T08:45:07.446Z,78619.66
2023-12-04T08:47:33.856Z,78613.44
2023-12-04T08:50:01.231Z,78615.50
2023-12-04T08:52:27.681Z,78607.19
2023-12-04T08:54:54.083Z,78596.81
2023-12-04T08:57:20.802Z,78600.97
2023-12-04T08:59:47.301Z,78586.41
2023-12-04T09:02:15.154Z,78580.19
2023-12-04T09:04:41.991Z,78567.72
2023-12-04T09:08:26.394Z,78563.56
2023-12-04T09:09:55.289Z,78561.47
2023-12-04T09:12:21.731Z,78559.41
2023-12-04T09:14:48.428Z,78555.25
2023-12-04T09:17:16.677Z,78551.09
2023-12-04T09:19:43.294Z,78542.78
2023-12-04T09:22:17.300Z,78542.78
2023-12-04T09:24:46.271Z,78536.53
2023-12-04T09:27:12.778Z,78526.16
2023-12-04T09:29:39.287Z,78524.06
2023-12-04T09:32:05.897Z,78530.31
2023-12-04T09:34:32.314Z,78524.06
2023-12-04T09:37:06.055Z,78517.84
2023-12-04T09:39:37.270Z,78515.75
2023-12-04T09:42:04.358Z,78515.75
2023-12-04T09:44:32.279Z,78517.84
2023-12-04T09:47:00.462Z,78509.53
2023-12-04T09:49:32.860Z,78511.59
2023-12-04T09:52:01.988Z,78511.59
2023-12-04T09:54:29.792Z,78507.44
2023-12-04T09:56:56.504Z,78503.28
2023-12-04T09:59:25.600Z,78499.13
2023-12-04T10:01:54.183Z,78494.97
2023-12-04T10:04:22.557Z,78486.66
2023-12-04T10:06:53.214Z,78476.25
2023-12-04T10:09:21.050Z,78470.03
2023-12-04T10:11:47.584Z,78463.81
2023-12-04T10:14:19.184Z,78459.63
2023-12-04T10:16:46.369Z,78449.25
2023-12-04T10:19:29.221Z,78434.69
2023-12-04T10:21:57.853Z,78430.53
2023-12-04T10:24:29.585Z,78416.00
2023-12-04T10:26:55.964Z,78413.91
2023-12-04T10:29:22.365Z,78411.84
2023-12-04T10:31:49.086Z,78397.28
2023-12-04T10:34:15.581Z,78395.22
2023-12-04T10:36:42.120Z,78391.06
2023-12-04T10:39:08.661Z,78384.81
2023-12-04T10:41:35.118Z,78384.81
2023-12-04T10:44:07.635Z,78382.75
2023-12-04T10:46:37.700Z,78380.66
2023-12-04T10:49:07.348Z,78376.50
2023-12-04T10:51:34.551Z,78374.44
2023-12-04T10:54:00.978Z,78368.19
2023-12-04T10:56:39.752Z,78366.13
2023-12-04T10:59:16.296Z,78368.19
2023-12-04T11:01:45.440Z,78353.66
2023-12-04T11:04:17.965Z,78351.56
2023-12-04T11:06:48.884Z,78339.09
2023-12-04T11:09:17.147Z,78343.25
2023-12-04T11:11:49.585Z,78330.78
2023-12-04T11:14:20.976Z,78322.47
2023-12-04T11:16:54.542Z,78328.72
2023-12-04T11:19:30.477Z,78332.88
2023-12-04T11:22:00.026Z,78322.47
2023-12-04T11:24:26.502Z,78316.25
2023-12-04T11:26:53.924Z,78318.31
2023-12-04T11:29:21.214Z,78310.00
2023-12-04T11:31:48.271Z,78316.25
2023-12-04T11:34:14.661Z,78310.00
2023-12-04T11:36:41.360Z,78303.78
2023-12-04T11:39:11.667Z,78307.94
2023-12-04T11:41:38.616Z,78293.38
2023-12-04T11:44:13.289Z,78305.84
2023-12-04T11:46:39.781Z,78316.25
2023-12-04T11:49:31.378Z,78324.56
2023-12-04T11:52:01.873Z,78314.16
2023-12-04T11:54:29.774Z,78316.25
2023-12-04T11:57:21.811Z,78316.25
2023-12-04T11:59:48.232Z,78318.31
2023-12-04T12:02:15.018Z,78320.41
2023-12-04T12:04:41.705Z,78318.31
2023-12-04T12:07:08.743Z,78312.09
2023-12-04T12:09:35.440Z,78305.84
2023-12-04T12:12:05.798Z,78316.25
2023-12-04T12:14:32.773Z,78307.94
2023-12-04T12:17:00.634Z,78312.09
2023-12-04T12:19:27.203Z,78297.53
2023-12-04T12:21:54.316Z,78272.59
2023-12-04T12:24:20.803Z,78285.06
2023-12-04T12:26:48.493Z,78272.59
2023-12-04T12:29:14.981Z,78283.00
2023-12-04T12:31:41.422Z,78278.84
2023-12-04T12:34:08.232Z,78280.91
2023-12-04T12:36:37.617Z,78280.91
2023-12-04T12:39:04.192Z,78276.75
2023-12-04T12:41:31.594Z,78276.75
2023-12-04T12:43:58.389Z,78266.38
2023-12-04T12:46:27.122Z,78262.22
2023-12-04T12:48:53.857Z,78260.13
2023-12-04T12:51:24.197Z,78253.91
2023-12-04T12:53:52.495Z,78247.66
2023-12-04T12:56:19.950Z,78235.19
2023-12-04T12:58:46.439Z,78226.88
2023-12-04T13:01:13.611Z,78216.50
2023-12-04T13:03:41.141Z,78228.97
2023-12-04T13:06:09.576Z,78218.56
2023-12-04T13:08:36.074Z,78210.25
2023-12-04T13:11:02.531Z,78226.88
2023-12-04T13:13:30.186Z,78216.50
2023-12-04T13:15:56.651Z,78214.41
2023-12-04T13:18:24.102Z,78214.41
2023-12-04T13:20:50.772Z,78218.56
2023-12-04T13:23:17.185Z,78208.19
2023-12-04T13:25:43.565Z,78208.19
2023-12-04T13:28:19.568Z,78201.94
2023-12-04T13:30:50.063Z,78204.03
2023-12-04T13:33:16.504Z,78206.09
2023-12-04T13:35:42.947Z,78193.63
2023-12-04T13:38:11.956Z,78199.88
2023-12-04T13:40:38.365Z,78204.03
2023-12-04T13:43:04.920Z,78187.41
2023-12-04T13:45:31.317Z,78195.72
2023-12-04T13:47:57.725Z,78197.78
2023-12-04T13:50:24.279Z,78208.19
2023-12-04T13:52:50.727Z,78208.19
2023-12-04T13:55:17.159Z,78208.19
2023-12-04T13:57:44.476Z,78199.88
2023-12-04T14:00:11.458Z,78199.88
2023-12-04T14:02:38.246Z,78193.63
2023-12-04T14:05:05.213Z,78177.00
2023-12-04T14:07:31.853Z,78172.84
2023-12-04T14:09:58.495Z,78174.94
2023-12-04T14:12:25.333Z,78174.94
2023-12-04T14:14:52.244Z,78181.16
2023-12-04T14:17:18.834Z,78174.94
2023-12-04T14:19:45.255Z,78164.53
2023-12-04T14:22:11.714Z,78170.78
2023-12-04T14:24:39.252Z,78162.47
2023-12-04T14:27:12.108Z,78162.47
2023-12-04T14:29:38.679Z,78158.31
2023-12-04T14:32:05.488Z,78160.38
2023-12-04T14:34:33.171Z,78156.22
2023-12-04T14:36:59.715Z,78160.38
2023-12-04T14:39:26.099Z,78154.16
2023-12-04T14:41:52.789Z,78156.22
2023-12-04T14:44:19.245Z,78156.22
2023-12-04T14:46:45.720Z,78156.22
2023-12-04T14:49:12.710Z,78154.16
2023-12-04T14:51:39.159Z,78152.06
2023-12-04T14:54:05.596Z,78154.16
2023-12-04T14:56:34.342Z,78152.06
2023-12-04T14:59:02.649Z,78150.00
2023-12-04T15:01:29.092Z,78150.00
2023-12-04T15:03:56.104Z,78150.00
2023-12-04T15:06:22.766Z,78150.00
2023-12-04T15:08:49.204Z,78156.22
2023-12-04T15:11:15.610Z,78154.16
2023-12-04T15:13:43.332Z,78160.38
2023-12-04T15:16:10.026Z,78158.31
2023-12-04T15:18:36.587Z,78154.16
2023-12-04T15:21:04.314Z,78150.00
2023-12-04T15:23:33.625Z,78147.91
2023-12-04T15:26:00.183Z,78141.69
2023-12-04T15:28:26.704Z,78131.28
2023-12-04T15:30:53.401Z,78135.44
2023-12-04T15:33:21.234Z,78133.38
2023-12-04T15:35:47.729Z,78133.38
2023-12-04T15:38:14.116Z,78137.53
2023-12-04T15:40:41.965Z,78141.69
2023-12-04T15:43:08.485Z,78141.69
2023-12-04T15:45:35.020Z,78145.84
2023-12-04T15:48:01.531Z,78145.84
2023-12-04T15:50:27.999Z,78143.75
2023-12-04T15:52:54.384Z,78147.91
2023-12-04T15:55:20.778Z,78160.38
2023-12-04T15:57:47.389Z,78152.06
2023-12-04T16:00:14.789Z,78152.06
2023-12-04T16:02:41.682Z,78156.22
2023-12-04T16:05:08.920Z,78154.16
2023-12-04T16:07:35.461Z,78152.06
2023-12-04T16:10:01.885Z,78152.06
2023-12-04T16:12:28.502Z,78158.31
2023-12-04T16:14:55.246Z,78162.47
2023-12-04T16:17:21.698Z,78162.47
2023-12-04T16:19:48.977Z,78160.38
2023-12-04T16:22:15.536Z,78162.47
2023-12-04T16:24:42.315Z,78162.47
2023-12-04T16:27:08.789Z,78162.47
2023-12-04T16:29:35.363Z,78156.22
2023-12-04T16:32:01.950Z,78160.38
2023-12-04T16:34:30.063Z,78158.31
2023-12-04T16:36:57.702Z,78162.47
2023-12-04T16:39:25.036Z,78156.22
2023-12-04T16:41:51.461Z,78160.38
2023-12-04T16:44:17.816Z,78160.38
2023-12-04T16:46:45.451Z,78156.22
2023-12-04T16:49:15.804Z,78166.63
2023-12-04T16:51:43.183Z,78162.47
2023-12-04T16:54:10.472Z,78162.47
2023-12-04T16:56:36.976Z,78156.22
2023-12-04T16:59:03.481Z,78147.91
2023-12-04T17:01:29.959Z,78147.91
2023-12-04T17:03:56.680Z,78139.59
2023-12-04T17:06:23.286Z,78139.59
2023-12-04T17:08:50.804Z,78137.53
2023-12-04T17:11:17.269Z,78135.44
2023-12-04T17:13:43.768Z,78133.38
2023-12-04T17:16:10.694Z,78129.22
2023-12-04T17:18:37.214Z,78131.28
2023-12-04T17:21:04.378Z,78131.28
2023-12-04T17:23:30.784Z,78127.13
2023-12-04T17:25:57.181Z,78122.97
2023-12-04T17:28:23.516Z,78120.91
2023-12-04T17:30:50.101Z,78110.50
2023-12-04T17:33:16.627Z,78112.59
2023-12-04T17:35:43.077Z,78114.66
2023-12-04T17:38:09.535Z,78108.44
2023-12-04T17:40:36.095Z,78108.44
2023-12-04T17:43:02.758Z,78106.34
2023-12-04T17:45:29.947Z,78104.28
2023-12-04T17:47:58.790Z,78095.97
2023-12-04T17:50:25.593Z,78104.28
2023-12-04T17:52:52.694Z,78102.19
2023-12-04T17:55:22.496Z,78108.44
2023-12-04T17:57:49.581Z,78106.34
2023-12-04T18:00:16.574Z,78108.44
2023-12-04T18:02:44.575Z,78108.44
2023-12-04T18:05:11.138Z,78106.34
2023-12-04T18:07:37.716Z,78114.66
2023-12-04T18:10:06.359Z,78110.50
2023-12-04T18:12:35.433Z,78108.44
2023-12-04T18:15:01.980Z,78098.03
2023-12-04T18:17:28.494Z,78100.13
2023-12-04T18:19:55.598Z,78098.03
2023-12-04T18:22:22.780Z,78089.72
2023-12-04T18:24:49.412Z,78089.72
2023-12-04T18:27:16.232Z,78093.88
2023-12-04T18:29:42.952Z,78095.97
2023-12-04T18:32:10.928Z,78098.03
2023-12-04T18:34:38.789Z,78087.66
2023-12-04T18:37:22.297Z,78095.97
2023-12-04T18:39:50.932Z,78093.88
2023-12-04T18:42:17.562Z,78087.66
2023-12-04T18:44:44.526Z,78089.72
2023-12-04T18:47:18.017Z,78077.25
2023-12-04T18:49:49.084Z,78091.81
2023-12-04T18:52:15.805Z,78091.81
2023-12-04T18:54:42.259Z,78091.81
2023-12-04T18:57:08.738Z,78089.72
2023-12-04T18:59:35.110Z,78079.34
2023-12-04T19:02:01.562Z,78077.25
2023-12-04T19:04:28.116Z,78062.72
2023-12-04T19:06:54.642Z,78060.63
2023-12-04T19:09:21.642Z,78058.56
2023-12-04T19:11:48.040Z,78062.72
2023-12-04T19:14:14.428Z,78058.56
2023-12-04T19:16:40.815Z,78052.31
2023-12-04T19:19:07.383Z,78056.47
2023-12-04T19:21:33.811Z,78056.47
2023-12-04T19:24:00.231Z,78052.31
2023-12-04T19:26:27.443Z,78052.31
2023-12-04T19:28:53.986Z,78037.78
2023-12-04T19:31:20.581Z,78041.94
2023-12-04T19:33:47.032Z,78033.63
2023-12-04T19:36:13.905Z,78037.78
2023-12-04T19:38:40.839Z,78037.78
2023-12-04T19:41:07.724Z,78035.69
2023-12-04T19:43:34.124Z,78027.41
2023-12-04T19:46:04.096Z,78029.47
2023-12-04T19:48:30.641Z,78033.63
2023-12-04T19:50:57.289Z,78023.22
2023-12-04T19:53:23.677Z,78019.09
2023-12-04T19:55:52.497Z,78019.09
2023-12-04T19:58:18.893Z,78012.84
2023-12-04T20:00:47.773Z,78017.00
2023-12-04T20:03:14.333Z,78004.53
2023-12-04T20:05:40.935Z,78004.53
2023-12-04T20:08:08.451Z,78000.38
2023-12-04T20:10:36.002Z,78004.53
2023-12-04T20:13:02.345Z,78004.53
2023-12-04T20:15:28.700Z,77998.31
2023-12-04T20:17:55.318Z,77994.16
2023-12-04T20:20:21.905Z,77996.22
2023-12-04T20:22:48.349Z,77992.06
2023-12-04T20:25:14.859Z,77990.00
2023-12-04T20:27:41.291Z,77992.06
2023-12-04T20:30:08.409Z,77983.75
2023-12-04T20:32:35.032Z,77973.38
2023-12-04T20:35:01.592Z,77969.22
2023-12-04T20:37:41.053Z,77971.28
2023-12-04T20:40:09.454Z,77965.06
2023-12-04T20:42:36.097Z,77969.22
2023-12-04T20:45:02.588Z,77967.13
2023-12-04T20:47:29.023Z,77960.91
2023-12-04T20:49:55.617Z,77971.28
2023-12-04T20:52:22.064Z,77962.97
2023-12-04T20:54:48.590Z,77954.66
2023-12-04T20:57:15.046Z,77962.97
2023-12-04T20:59:41.544Z,77952.59
2023-12-04T21:02:07.978Z,77950.50
2023-12-04T21:04:34.511Z,77946.34
2023-12-04T21:07:01.015Z,77950.50
2023-12-04T21:09:27.456Z,77954.66
2023-12-04T21:11:53.852Z,77948.44
2023-12-04T21:14:20.500Z,77952.59
2023-12-04T21:16:51.992Z,77942.19
2023-12-04T21:19:22.258Z,77933.88
2023-12-04T21:21:48.820Z,77929.72
2023-12-04T21:24:15.274Z,77925.56
2023-12-04T21:26:41.714Z,77929.72
2023-12-04T21:29:08.263Z,77927.66
2023-12-04T21:31:34.641Z,77927.66
2023-12-04T21:34:01.112Z,77925.56
2023-12-04T21:36:27.595Z,77915.19
2023-12-04T21:38:54.340Z,77929.72
2023-12-04T21:41:20.710Z,77913.09
2023-12-04T21:43:47.055Z,77911.03
2023-12-04T21:46:13.565Z,77913.09
2023-12-04T21:48:40.145Z,77911.03
2023-12-04T21:51:06.914Z,77908.94
2023-12-04T21:53:33.327Z,77906.88
2023-12-04T21:55:59.761Z,77902.72
2023-12-04T21:58:26.396Z,77900.63
2023-12-04T22:00:52.842Z,77906.88
2023-12-04T22:03:19.387Z,77900.63
2023-12-04T22:05:45.896Z,77900.63
2023-12-04T22:08:12.253Z,77892.31
2023-12-04T22:10:38.744Z,77890.25
2023-12-04T22:13:05.672Z,77886.09
2023-12-04T22:15:33.129Z,77884.00
2023-12-04T22:17:59.672Z,77879.84
2023-12-04T22:20:26.136Z,77881.94
2023-12-04T22:22:54.725Z,77873.63
2023-12-04T22:25:21.174Z,77865.31
2023-12-04T22:27:47.786Z,77869.47
2023-12-04T22:30:14.336Z,77865.31
2023-12-04T22:32:40.832Z,77869.47
2023-12-04T22:35:07.606Z,77865.31
2023-12-04T22:37:33.990Z,77869.47
2023-12-04T22:40:00.332Z,77865.31
2023-12-04T22:42:26.823Z,77867.38
2023-12-04T22:44:53.171Z,77867.38
2023-12-04T22:47:19.655Z,77861.16
2023-12-04T22:49:46.231Z,77863.22
2023-12-04T22:52:12.733Z,77857.00
2023-12-04T22:54:39.199Z,77863.22
2023-12-04T22:57:06.546Z,77863.22
2023-12-04T22:59:32.997Z,77861.16
2023-12-04T23:01:59.783Z,77859.06
2023-12-04T23:04:26.796Z,77859.06
2023-12-04T23:06:54.526Z,77863.22
2023-12-04T23:09:21.256Z,77861.16
2023-12-04T23:11:47.750Z,77854.91
2023-12-04T23:14:14.291Z,77850.75
2023-12-04T23:16:43.816Z,77852.84
2023-12-04T23:19:10.949Z,77850.75
2023-12-04T23:21:38.194Z,77848.69
2023-12-04T23:24:05.551Z,77836.22
2023-12-04T23:26:32.515Z,77838.31
2023-12-04T23:28:59.019Z,77850.75
2023-12-04T23:31:25.583Z,77850.75
2023-12-04T23:33:52.315Z,77844.53
2023-12-04T23:36:19.027Z,77840.38
2023-12-04T23:38:45.510Z,77827.91
2023-12-04T23:41:12.152Z,77834.13
2023-12-04T23:43:38.641Z,77842.44
2023-12-04T23:46:05.308Z,77846.59
2023-12-04T23:48:31.758Z,77832.06
2023-12-04T23:50:58.158Z,77829.97
2023-12-04T23:53:24.525Z,77832.06
2023-12-04T23:55:52.160Z,77832.06
2023-12-04T23:58:18.548Z,77832.06
